Accueil
METAR-TAF:

METAR-TAF

Aéroports :

Batesville, Arkansas, États-Unis

latitude: 35-44N, longitude: 091-39W, altitude: 141 m

Observation

Le bulletin a été fait il y a 46 minutes, à 10:56 UTC
Vent 3 kt de direction variable
Température 12°C
Humidité 82%
Pression 1021 hPa
Visibilité: 16.1 km
Ciel clair

METAR: KBVX 011056Z AUTO VRB03KT 10SM CLR 12/09 A3015 RMK AO2 SLP206 T01220089

Heure: 06:42 (11:42 UTC)


TAF: absent

Observations et prévisions météorologiques de plus de 4000 aéroports (messages METAR et TAF).

Les stations disponibles sont représentées par des disques jaunes et rouges sur la carte.

Passer la souris dessus pour voir le nom de la station.

Cliquer dessus pour voir les observations et prévisions météorologiques.

Pour changer de carte: cliquez sur les boutons verts avec une croix noire pour zoomer, sur le bouton vert avec un tiret pour effectuer un zoom arrière, ou sur les flèches vertes pour les cartes adjacentes.


METAR-TAF: